Time;durP1;ratioP1;P1;durP2;ratioP2;P2;SDS_P1;SDS_P2;PMS_P1;PMS_P2;Temp;Humidity;BMP_temperature;BMP_pressure;BME280_temperature;BME280_humidity;BME280_pressure;Samples;Min_cycle;Max_cycle;Signal;HPM_P1;HPM_P2
2023/12/02 00:00:26;;;;;;;33.67;12.27;;;;;;;4.49;78.79;98219.81;4484038;32;33833;-77
2023/12/02 00:02:56;;;;;;;27.35;12.20;;;;;;;4.27;79.65;98240.63;4483998;32;33880;-77
2023/12/02 00:05:25;;;;;;;32.63;13.90;;;;;;;4.11;80.10;98249.56;4483847;32;33998;-77
2023/12/02 00:07:54;;;;;;;32.08;12.55;;;;;;;4.51;79.43;98238.06;4484199;32;35267;-77
2023/12/02 00:10:24;;;;;;;30.15;13.15;;;;;;;4.59;78.93;98227.84;4483780;32;34048;-77
2023/12/02 00:12:54;;;;;;;20.95;12.30;;;;;;;4.55;78.98;98222.00;4483315;32;34139;-77
2023/12/02 00:15:23;;;;;;;19.15;11.02;;;;;;;4.49;79.21;98229.47;4483618;32;34035;-77
2023/12/02 00:17:53;;;;;;;20.95;12.27;;;;;;;4.84;78.11;98219.06;4483623;32;34286;-77
2023/12/02 00:20:23;;;;;;;19.20;11.07;;;;;;;4.98;77.10;98226.75;4483457;32;33890;-77
2023/12/02 00:22:52;;;;;;;25.98;10.98;;;;;;;4.76;78.22;98235.38;4485063;32;33971;-77
2023/12/02 00:25:21;;;;;;;17.48;12.43;;;;;;;4.49;79.14;98238.19;4485740;32;33751;-77
2023/12/02 00:27:51;;;;;;;30.50;13.25;;;;;;;4.95;77.50;98234.88;4486152;32;33709;-77
2023/12/02 00:30:20;;;;;;;26.98;11.82;;;;;;;4.33;79.73;98232.34;4486171;32;34126;-77
2023/12/02 00:32:50;;;;;;;21.83;11.00;;;;;;;4.23;80.39;98236.53;4485001;32;34724;-77
2023/12/02 00:35:19;;;;;;;23.45;13.38;;;;;;;4.49;79.21;98226.84;4485004;31;34115;-77
2023/12/02 00:37:48;;;;;;;32.47;12.88;;;;;;;4.39;79.58;98214.38;4485092;32;33942;-77
2023/12/02 00:40:18;;;;;;;20.88;12.27;;;;;;;4.47;79.63;98213.00;4485234;32;33885;-77
2023/12/02 00:42:47;;;;;;;22.52;11.75;;;;;;;4.69;78.57;98221.00;4484865;32;33724;-77
2023/12/02 00:45:18;;;;;;;21.52;12.37;;;;;;;4.90;77.79;98227.31;4485510;32;34538;-77
2023/12/02 00:47:47;;;;;;;34.58;12.55;;;;;;;4.63;78.36;98234.56;4485321;32;33437;-77
2023/12/02 00:50:17;;;;;;;26.33;14.87;;;;;;;4.62;78.18;98227.66;4485068;32;33770;-77
2023/12/02 00:52:48;;;;;;;24.60;12.60;;;;;;;4.56;78.64;98217.59;4484918;32;34373;-77
2023/12/02 00:55:17;;;;;;;27.35;15.55;;;;;;;4.47;79.16;98220.88;4484482;32;34589;-77
2023/12/02 00:57:47;;;;;;;33.15;12.68;;;;;;;4.88;77.90;98223.16;4470300;32;33103;-77
2023/12/02 01:00:18;;;;;;;22.87;12.55;;;;;;;4.75;77.66;98235.47;4485139;32;34319;-77
2023/12/02 01:02:48;;;;;;;32.55;14.43;;;;;;;4.52;78.98;98230.09;4467609;32;32469;-77
2023/12/02 01:05:17;;;;;;;27.23;13.07;;;;;;;4.75;78.17;98233.72;4484412;32;33659;-77
2023/12/02 01:07:46;;;;;;;36.53;12.68;;;;;;;4.62;78.72;98217.97;4484627;32;34415;-77
2023/12/02 01:10:15;;;;;;;27.30;11.65;;;;;;;4.97;77.56;98213.75;4484592;32;33320;-77
2023/12/02 01:12:45;;;;;;;22.15;12.55;;;;;;;4.88;77.59;98213.50;4484413;32;33769;-77
2023/12/02 01:15:16;;;;;;;28.98;13.07;;;;;;;5.21;76.87;98209.31;4484646;31;34336;-77
2023/12/02 01:17:46;;;;;;;19.92;12.07;;;;;;;4.97;77.13;98209.34;4484677;32;33566;-77
2023/12/02 01:20:15;;;;;;;24.80;11.52;;;;;;;4.96;77.87;98210.31;4484415;32;34265;-77
2023/12/02 01:22:44;;;;;;;21.60;12.73;;;;;;;4.73;78.59;98196.22;4484465;32;34759;-77
2023/12/02 01:25:14;;;;;;;19.52;11.18;;;;;;;5.21;76.74;98201.44;4484555;32;34358;-77
2023/12/02 01:27:45;;;;;;;29.20;12.15;;;;;;;5.10;77.46;98206.66;4484750;32;33929;-77
2023/12/02 01:30:15;;;;;;;22.48;11.12;;;;;;;5.45;75.80;98208.44;4470627;32;32492;-77
2023/12/02 01:32:45;;;;;;;24.90;10.32;;;;;;;5.06;77.48;98211.28;4484295;32;34059;-77
2023/12/02 01:35:15;;;;;;;22.37;10.00;;;;;;;4.86;78.19;98194.37;4484265;32;33782;-77
2023/12/02 01:37:45;;;;;;;32.78;12.98;;;;;;;4.80;78.68;98201.87;4484611;32;33790;-77
2023/12/02 01:40:14;;;;;;;33.80;15.20;;;;;;;4.68;78.89;98190.50;4484339;32;34802;-77
2023/12/02 01:42:43;;;;;;;25.00;10.30;;;;;;;4.85;78.45;98194.50;4484880;32;33804;-77
2023/12/02 01:45:12;;;;;;;30.35;12.37;;;;;;;4.88;78.40;98205.62;4484960;32;34945;-77
2023/12/02 01:47:43;;;;;;;23.85;12.32;;;;;;;5.00;77.96;98187.31;4484796;32;34480;-78
2023/12/02 01:50:16;;;;;;;19.83;12.30;;;;;;;5.15;77.35;98197.50;4484858;32;33968;-77
2023/12/02 01:52:45;;;;;;;37.42;13.25;;;;;;;5.06;77.70;98190.28;4484506;32;34070;-77
2023/12/02 01:55:15;;;;;;;22.52;11.45;;;;;;;4.76;78.51;98192.56;4484556;32;33414;-78
2023/12/02 01:57:46;;;;;;;19.62;12.30;;;;;;;4.84;79.04;98203.34;4485014;32;34230;-78
2023/12/02 02:00:16;;;;;;;20.40;13.23;;;;;;;5.01;78.40;98189.81;4485340;32;34609;-78
2023/12/02 02:02:45;;;;;;;23.35;12.57;;;;;;;5.05;78.05;98180.75;4484942;32;33775;-77
2023/12/02 02:05:16;;;;;;;37.33;12.25;;;;;;;5.21;76.79;98174.34;4484801;32;34882;-77
2023/12/02 02:07:45;;;;;;;29.20;14.73;;;;;;;4.75;78.40;98175.97;4485023;32;33427;-77
2023/12/02 02:10:14;;;;;;;22.45;11.50;;;;;;;5.04;77.79;98176.44;4484769;32;35216;-77
2023/12/02 02:12:44;;;;;;;25.02;11.20;;;;;;;4.99;77.81;98154.97;4484878;32;34483;-77
2023/12/02 02:15:13;;;;;;;29.00;12.23;;;;;;;4.97;78.10;98141.09;4485359;31;34089;-77
2023/12/02 02:17:42;;;;;;;27.27;12.88;;;;;;;4.88;78.74;98155.75;4484668;32;33105;-77
2023/12/02 02:20:12;;;;;;;23.67;11.95;;;;;;;4.96;78.41;98141.22;4485491;32;34007;-77
2023/12/02 02:22:43;;;;;;;24.50;10.52;;;;;;;4.82;79.09;98144.88;4484965;32;34163;-77
2023/12/02 02:25:12;;;;;;;17.58;10.68;;;;;;;5.04;78.12;98155.44;4484605;32;33926;-77
2023/12/02 02:27:41;;;;;;;24.80;12.05;;;;;;;5.15;77.98;98154.66;4484682;32;33709;-77
2023/12/02 02:30:11;;;;;;;22.70;11.65;;;;;;;4.99;77.62;98160.22;4484650;32;34585;-78
2023/12/02 02:32:39;;;;;;;27.02;11.93;;;;;;;4.96;78.28;98152.56;4484597;32;33994;-77
2023/12/02 02:35:09;;;;;;;21.65;11.35;;;;;;;4.85;78.94;98136.78;4484089;32;34197;-77
2023/12/02 02:37:39;;;;;;;20.42;11.65;;;;;;;4.81;79.40;98159.78;4484422;32;33507;-77
2023/12/02 02:40:11;;;;;;;25.33;10.88;;;;;;;4.97;78.61;98138.47;4484442;32;34317;-77
2023/12/02 02:42:41;;;;;;;26.35;12.05;;;;;;;5.18;77.76;98144.75;4484354;32;34009;-77
2023/12/02 02:45:11;;;;;;;29.83;11.68;;;;;;;5.24;77.69;98145.25;4483901;32;34227;-77
2023/12/02 02:47:39;;;;;;;25.70;11.45;;;;;;;5.23;77.15;98139.16;4484434;32;33663;-77
2023/12/02 02:50:09;;;;;;;19.30;10.10;;;;;;;4.85;78.71;98139.41;4484624;32;33772;-77
2023/12/02 02:52:38;;;;;;;28.40;11.27;;;;;;;5.23;77.44;98143.59;4484221;32;34074;-77
2023/12/02 02:55:08;;;;;;;29.12;11.00;;;;;;;5.00;78.14;98148.75;4484270;31;34162;-77
2023/12/02 02:57:39;;;;;;;25.25;11.50;;;;;;;5.26;77.64;98148.59;4484498;32;35317;-77
2023/12/02 03:00:10;;;;;;;36.60;12.88;;;;;;;5.06;77.82;98137.78;4484750;32;33789;-77
2023/12/02 03:02:40;;;;;;;33.80;13.75;;;;;;;5.21;77.17;98148.09;4484588;32;34920;-77
2023/12/02 03:05:09;;;;;;;34.22;10.20;;;;;;;4.95;77.70;98135.16;4484243;31;33820;-77
2023/12/02 03:07:40;;;;;;;35.15;11.98;;;;;;;5.50;76.13;98122.25;4484693;32;34640;-77
2023/12/02 03:10:10;;;;;;;18.48;10.38;;;;;;;5.48;76.23;98124.16;4484843;32;33819;-77
2023/12/02 03:12:40;;;;;;;42.67;11.82;;;;;;;5.57;75.92;98118.19;4484354;32;33537;-77
2023/12/02 03:15:10;;;;;;;20.80;9.02;;;;;;;5.24;77.34;98124.25;4484668;32;33768;-77
2023/12/02 03:17:39;;;;;;;24.08;11.68;;;;;;;5.29;77.23;98133.44;4484892;32;34875;-77
2023/12/02 03:20:09;;;;;;;20.90;10.10;;;;;;;5.20;77.56;98128.06;4484649;32;33943;-77
2023/12/02 03:22:38;;;;;;;41.85;12.23;;;;;;;5.11;78.07;98137.47;4484295;32;33874;-77
2023/12/02 03:25:08;;;;;;;18.10;10.35;;;;;;;5.02;77.89;98128.47;4484054;32;34052;-77
2023/12/02 03:27:36;;;;;;;22.10;10.85;;;;;;;5.44;76.88;98126.19;4484856;32;33896;-77
2023/12/02 03:30:08;;;;;;;32.50;11.55;;;;;;;5.36;77.22;98124.16;4484392;32;49145;-77
2023/12/02 03:32:38;;;;;;;19.58;11.68;;;;;;;4.94;78.77;98143.94;4484241;32;34222;-77
2023/12/02 03:35:08;;;;;;;22.00;11.15;;;;;;;5.41;76.81;98142.16;4484259;32;34506;-77
2023/12/02 03:37:39;;;;;;;35.95;14.90;;;;;;;5.22;77.45;98134.00;4484197;32;33591;-77
2023/12/02 03:40:10;;;;;;;31.35;11.25;;;;;;;4.91;78.37;98124.03;4484180;32;34525;-77
2023/12/02 03:42:39;;;;;;;36.75;10.93;;;;;;;5.00;78.37;98114.62;4469745;32;33263;-77
2023/12/02 03:45:11;;;;;;;19.73;9.52;;;;;;;5.05;78.12;98114.28;4484325;32;33800;-77
2023/12/02 03:47:40;;;;;;;18.40;10.27;;;;;;;5.38;76.96;98088.06;4484237;32;34230;-77
2023/12/02 03:50:10;;;;;;;30.67;12.82;;;;;;;5.16;77.47;98111.69;4483724;32;34393;-77
2023/12/02 03:52:42;;;;;;;41.20;12.95;;;;;;;4.74;78.88;98089.50;4484096;32;33649;-77
2023/12/02 03:55:12;;;;;;;22.17;11.40;;;;;;;5.02;77.98;98098.75;4483528;32;33978;-77
2023/12/02 03:57:41;;;;;;;26.52;12.80;;;;;;;5.27;76.76;98097.75;4484157;32;33874;-77
2023/12/02 04:00:13;;;;;;;25.70;10.95;;;;;;;4.99;77.94;98098.97;4484420;32;34109;-77
2023/12/02 04:02:42;;;;;;;30.45;12.75;;;;;;;5.33;76.65;98100.72;4483668;32;33988;-77
2023/12/02 04:05:13;;;;;;;27.90;13.00;;;;;;;5.07;77.74;98110.59;4483280;32;33562;-77
2023/12/02 04:07:43;;;;;;;25.17;10.68;;;;;;;5.22;77.14;98102.50;4483589;32;34351;-77
2023/12/02 04:10:12;;;;;;;26.83;11.50;;;;;;;5.07;77.72;98107.97;4483823;32;34577;-77
2023/12/02 04:12:41;;;;;;;22.08;12.05;;;;;;;5.24;77.19;98104.06;4483518;32;34023;-77
2023/12/02 04:15:12;;;;;;;29.27;10.63;;;;;;;5.16;77.35;98099.41;4483717;32;34574;-77
2023/12/02 04:17:41;;;;;;;25.55;11.12;;;;;;;5.13;77.75;98102.25;4483450;32;33583;-77
2023/12/02 04:20:15;;;;;;;46.00;14.05;;;;;;;5.06;77.76;98106.28;4469237;32;33196;-77
2023/12/02 04:22:44;;;;;;;19.23;11.38;;;;;;;5.08;77.58;98107.03;4483465;32;33690;-77
2023/12/02 04:25:13;;;;;;;24.35;11.80;;;;;;;5.06;77.73;98115.94;4483293;32;33944;-77
2023/12/02 04:27:42;;;;;;;16.10;10.98;;;;;;;5.00;78.22;98106.75;4483343;32;33195;-77
2023/12/02 04:30:13;;;;;;;19.60;11.75;;;;;;;5.02;78.33;98115.34;4484031;32;33999;-77
2023/12/02 04:32:43;;;;;;;16.92;10.30;;;;;;;5.17;77.63;98111.56;4483004;32;33575;-77
2023/12/02 04:35:17;;;;;;;15.55;10.23;;;;;;;5.17;77.69;98106.31;4482996;32;34012;-77
2023/12/02 04:37:46;;;;;;;22.23;10.63;;;;;;;4.85;78.89;98105.28;4483227;32;33095;-77
2023/12/02 04:40:15;;;;;;;19.40;11.48;;;;;;;5.09;78.48;98100.81;4482954;32;33719;-77
2023/12/02 04:42:44;;;;;;;15.93;10.43;;;;;;;5.10;77.97;98097.22;4483353;32;35342;-77
2023/12/02 04:45:16;;;;;;;19.23;10.07;;;;;;;5.09;77.76;98097.34;4483540;32;34092;-77
2023/12/02 04:47:45;;;;;;;16.17;10.05;;;;;;;5.04;78.28;98092.47;4483050;32;33473;-77
2023/12/02 04:50:14;;;;;;;16.62;9.82;;;;;;;4.89;78.64;98085.72;4482838;32;33749;-77
2023/12/02 04:52:44;;;;;;;21.83;10.10;;;;;;;4.98;78.70;98081.56;4482807;32;34212;-77
2023/12/02 04:55:13;;;;;;;19.92;11.20;;;;;;;5.22;77.55;98086.75;4482613;32;33930;-77
2023/12/02 04:57:42;;;;;;;16.02;9.82;;;;;;;5.04;78.64;98087.22;4482681;32;34075;-77
2023/12/02 05:00:14;;;;;;;17.27;10.98;;;;;;;4.97;78.76;98093.88;4483526;32;33587;-77
2023/12/02 05:02:45;;;;;;;18.73;10.60;;;;;;;4.72;79.72;98079.13;4482620;32;34750;-77
2023/12/02 05:05:16;;;;;;;15.98;9.95;;;;;;;4.91;79.02;98071.56;4482419;32;33880;-77
2023/12/02 05:07:46;;;;;;;15.73;10.18;;;;;;;4.95;79.09;98053.78;4483307;32;34672;-77
2023/12/02 05:10:15;;;;;;;16.87;9.80;;;;;;;5.21;78.19;98069.34;4484934;32;33618;-77
2023/12/02 05:12:44;;;;;;;16.10;10.30;;;;;;;5.15;78.08;98060.97;4484930;32;34523;-77
2023/12/02 05:15:14;;;;;;;16.62;10.07;;;;;;;5.36;77.58;98058.47;4485393;32;34006;-77
2023/12/02 05:17:45;;;;;;;13.43;9.50;;;;;;;5.22;77.63;98069.19;4484991;32;33282;-77
2023/12/02 05:20:15;;;;;;;15.38;10.73;;;;;;;4.92;79.03;98075.00;4485200;32;33933;-77
2023/12/02 05:22:44;;;;;;;14.98;10.23;;;;;;;5.06;78.36;98059.03;4485326;32;34275;-77
2023/12/02 05:25:17;;;;;;;14.87;10.27;;;;;;;5.56;76.73;98059.56;4484774;32;34055;-77
2023/12/02 05:27:46;;;;;;;14.30;9.05;;;;;;;5.31;77.66;98065.87;4485121;32;33430;-77
2023/12/02 05:30:16;;;;;;;16.73;9.57;;;;;;;5.66;76.31;98057.91;4485561;32;33751;-77
2023/12/02 05:32:46;;;;;;;12.37;8.68;;;;;;;5.56;76.64;98054.31;4484995;32;33640;-77
2023/12/02 05:35:16;;;;;;;15.80;9.98;;;;;;;5.86;75.27;98045.81;4484612;32;34400;-77
2023/12/02 05:37:45;;;;;;;15.15;9.98;;;;;;;5.54;76.46;98053.56;4484953;32;33142;-77
2023/12/02 05:40:15;;;;;;;12.45;8.07;;;;;;;5.65;75.85;98044.88;4484893;32;33852;-77
2023/12/02 05:42:45;;;;;;;13.62;9.48;;;;;;;5.13;77.87;98056.78;4484552;32;33528;-77
2023/12/02 05:45:14;;;;;;;17.20;10.23;;;;;;;5.57;76.16;98055.97;4484938;32;34029;-77
2023/12/02 05:47:44;;;;;;;15.25;9.20;;;;;;;5.27;77.34;98053.94;4484540;32;33748;-77
2023/12/02 05:50:14;;;;;;;15.88;10.80;;;;;;;5.23;77.87;98078.78;4484778;32;33949;-77
2023/12/02 05:52:43;;;;;;;14.20;8.63;;;;;;;5.06;77.92;98069.53;4484355;32;33733;-77
2023/12/02 05:55:12;;;;;;;15.48;9.98;;;;;;;5.03;78.11;98067.16;4484026;32;34248;-77
2023/12/02 05:57:43;;;;;;;15.18;9.07;;;;;;;4.91;78.66;98063.69;4484715;32;33971;-77
2023/12/02 06:00:16;;;;;;;15.27;9.50;;;;;;;5.14;77.62;98056.66;4484325;32;34491;-77
2023/12/02 06:02:46;;;;;;;14.32;8.85;;;;;;;5.15;77.75;98057.53;4484601;32;34651;-77
2023/12/02 06:05:17;;;;;;;17.42;11.25;;;;;;;5.43;77.02;98048.34;4484057;31;34404;-77
2023/12/02 06:07:46;;;;;;;14.35;9.55;;;;;;;5.57;75.97;98042.00;4484288;32;33679;-77
2023/12/02 06:10:15;;;;;;;15.30;10.40;;;;;;;5.42;76.66;98057.16;4484317;32;34764;-77
2023/12/02 06:12:44;;;;;;;15.30;9.60;;;;;;;5.41;76.96;98069.47;4484326;32;33993;-77
2023/12/02 06:15:14;;;;;;;17.25;10.35;;;;;;;5.38;77.24;98076.75;4484815;32;34582;-77
2023/12/02 06:17:43;;;;;;;16.92;8.25;;;;;;;5.50;76.59;98086.28;4484667;32;34084;-77
2023/12/02 06:20:13;;;;;;;13.70;8.32;;;;;;;5.87;75.12;98091.31;4483316;32;35897;-77
2023/12/02 06:22:43;;;;;;;13.60;8.93;;;;;;;5.83;74.89;98076.75;4484508;32;34042;-77
2023/12/02 06:25:12;;;;;;;13.15;8.85;;;;;;;5.84;75.01;98094.19;4484516;32;34155;-77
2023/12/02 06:27:41;;;;;;;13.90;8.80;;;;;;;6.02;74.62;98082.25;4484527;32;33510;-77
2023/12/02 06:30:11;;;;;;;13.55;8.48;;;;;;;6.45;73.45;98099.00;4484986;32;34755;-77
2023/12/02 06:32:43;;;;;;;16.17;9.70;;;;;;;6.25;73.49;98097.97;4484456;32;34072;-77
2023/12/02 06:35:13;;;;;;;17.60;10.77;;;;;;;6.71;71.87;98097.72;4484342;32;34255;-77
2023/12/02 06:37:45;;;;;;;15.50;10.88;;;;;;;6.51;72.64;98103.78;4484379;32;33811;-77
2023/12/02 06:40:14;;;;;;;16.87;10.70;;;;;;;6.70;72.14;98109.22;4484523;32;34031;-77
2023/12/02 06:42:43;;;;;;;13.40;8.70;;;;;;;6.60;72.47;98111.75;4484624;32;33661;-77
2023/12/02 06:45:12;;;;;;;13.43;8.75;;;;;;;6.37;72.92;98115.41;4484763;32;33650;-77
2023/12/02 06:47:41;;;;;;;14.77;8.85;;;;;;;6.62;72.37;98090.59;4484560;32;33725;-77
2023/12/02 06:50:11;;;;;;;13.32;8.63;;;;;;;6.55;72.56;98099.94;4484664;32;34729;-77
2023/12/02 06:52:43;;;;;;;15.93;9.85;;;;;;;6.71;72.13;98105.59;4484431;32;33692;-77
2023/12/02 06:55:12;;;;;;;16.40;10.90;;;;;;;6.85;71.36;98101.81;4484331;32;33699;-78
2023/12/02 06:57:44;;;;;;;12.65;9.52;;;;;;;7.02;70.54;98092.56;4484423;32;33477;-77
2023/12/02 07:00:15;;;;;;;31.25;26.27;;;;;;;7.21;69.27;98092.69;4484781;32;34988;-77
2023/12/02 07:02:44;;;;;;;26.33;19.25;;;;;;;6.95;70.18;98099.28;4470081;32;34395;-77
2023/12/02 07:05:13;;;;;;;15.48;12.00;;;;;;;6.65;71.48;98099.06;4484272;32;34732;-77
2023/12/02 07:07:44;;;;;;;15.32;10.73;;;;;;;6.85;71.23;98113.22;4484142;32;33252;-77
2023/12/02 07:10:14;;;;;;;13.55;9.90;;;;;;;7.04;70.66;98117.78;4484404;32;33984;-77
2023/12/02 07:12:43;;;;;;;12.30;9.70;;;;;;;6.77;71.49;98109.53;4484441;32;34620;-77
2023/12/02 07:15:12;;;;;;;17.02;11.50;;;;;;;6.86;71.36;98103.53;4484660;31;33694;-77
2023/12/02 07:17:41;;;;;;;18.83;12.82;;;;;;;6.99;70.98;98112.06;4484536;32;33640;-77
2023/12/02 07:20:13;;;;;;;15.27;10.43;;;;;;;6.75;71.58;98101.75;4484355;32;33489;-77
2023/12/02 07:22:44;;;;;;;15.45;10.10;;;;;;;6.78;71.51;98098.88;4484309;32;34356;-77
2023/12/02 07:25:13;;;;;;;20.05;12.43;;;;;;;6.78;71.60;98098.88;4484320;31;33938;-77
2023/12/02 07:27:43;;;;;;;17.40;11.88;;;;;;;6.72;71.81;98095.91;4483994;32;33493;-77
2023/12/02 07:30:13;;;;;;;17.15;11.98;;;;;;;6.97;71.13;98100.84;4484182;32;33571;-77
2023/12/02 07:32:45;;;;;;;;;;;;;;;6.43;72.56;98087.78;4484535;32;33943;-77
2023/12/02 07:35:15;;;;;;;18.60;11.77;;;;;;;6.64;72.16;98089.47;4484150;32;34701;-77
2023/12/02 07:37:49;;;;;;;20.88;11.48;;;;;;;6.50;72.54;98091.59;4484295;32;34287;-77
2023/12/02 07:40:19;;;;;;;15.48;10.25;;;;;;;6.43;73.25;98083.34;4484059;32;33706;-77
2023/12/02 07:42:48;;;;;;;16.77;10.68;;;;;;;6.47;73.23;98081.31;4484264;32;33794;-77
2023/12/02 07:45:17;;;;;;;16.77;10.93;;;;;;;6.70;72.71;98087.31;4484207;32;34057;-77
2023/12/02 07:47:46;;;;;;;20.17;11.02;;;;;;;6.40;73.39;98076.53;4483784;32;34410;-77
2023/12/02 07:50:15;;;;;;;17.98;11.65;;;;;;;6.59;73.40;98070.59;4469370;32;32239;-77
2023/12/02 07:52:48;;;;;;;16.27;10.80;;;;;;;6.50;73.26;98078.44;4483702;32;33838;-77
2023/12/02 07:55:18;;;;;;;15.77;10.68;;;;;;;6.78;72.37;98077.00;4483656;32;34162;-77
2023/12/02 07:57:47;;;;;;;17.20;12.48;;;;;;;6.32;73.69;98063.16;4483747;32;33708;-78
2023/12/02 08:00:18;;;;;;;15.63;11.00;;;;;;;6.59;72.48;98080.31;4483769;32;34417;-77
2023/12/02 08:02:48;;;;;;;18.37;10.27;;;;;;;6.57;72.79;98066.41;4483426;32;35262;-77
2023/12/02 08:05:18;;;;;;;21.17;12.20;;;;;;;6.61;72.86;98079.22;4483165;31;35172;-78
2023/12/02 08:07:51;;;;;;;16.62;10.75;;;;;;;6.73;72.52;98081.78;4483717;32;33221;-77
2023/12/02 08:10:21;;;;;;;21.70;13.95;;;;;;;6.24;73.85;98081.37;4483308;32;33414;-77
2023/12/02 08:12:51;;;;;;;20.40;12.48;;;;;;;6.24;74.10;98081.37;4483282;32;34350;-77
2023/12/02 08:15:19;;;;;;;19.08;11.15;;;;;;;6.43;73.82;98088.59;4484062;32;34720;-77
2023/12/02 08:17:49;;;;;;;17.10;11.63;;;;;;;6.66;72.89;98092.00;4483385;32;33424;-77
2023/12/02 08:20:18;;;;;;;24.12;11.98;;;;;;;6.84;72.73;98100.16;4483215;32;34039;-77
2023/12/02 08:22:48;;;;;;;16.40;11.27;;;;;;;6.85;72.41;98105.31;4468812;32;33558;-77
2023/12/02 08:25:18;;;;;;;24.08;11.68;;;;;;;6.90;72.13;98110.19;4482921;32;34786;-77
2023/12/02 08:27:47;;;;;;;22.40;12.07;;;;;;;6.69;72.42;98106.69;4483452;32;33821;-77
2023/12/02 08:30:17;;;;;;;23.02;12.90;;;;;;;6.82;72.42;98115.25;4483745;32;33648;-77
2023/12/02 08:32:46;;;;;;;23.85;12.07;;;;;;;6.81;72.73;98124.97;4483509;32;33912;-77
2023/12/02 08:35:15;;;;;;;22.65;12.27;;;;;;;6.84;72.46;98143.13;4483032;31;34800;-77
2023/12/02 08:37:44;;;;;;;19.33;11.77;;;;;;;6.27;74.27;98144.25;4483065;32;33697;-77
2023/12/02 08:40:13;;;;;;;18.42;12.60;;;;;;;6.77;72.90;98141.09;4475130;32;34777;-77
2023/12/02 08:42:44;;;;;;;21.23;14.40;;;;;;;6.87;72.79;98136.78;4468152;32;34889;-77
2023/12/02 08:45:13;;;;;;;19.45;11.27;;;;;;;6.75;72.74;98125.44;4485381;32;34120;-77
2023/12/02 08:47:43;;;;;;;18.40;11.63;;;;;;;6.87;72.59;98132.34;4485083;32;33548;-77
2023/12/02 08:50:12;;;;;;;19.90;11.10;;;;;;;6.54;73.63;98116.69;4485209;32;33814;-77
2023/12/02 08:52:41;;;;;;;20.65;11.63;;;;;;;6.68;73.31;98129.53;4484922;32;33943;-77
2023/12/02 08:55:10;;;;;;;23.58;13.68;;;;;;;6.72;73.65;98130.12;4485259;32;34005;-77
2023/12/02 08:57:44;;;;;;;22.67;13.32;;;;;;;6.21;74.56;98125.47;4485001;32;33647;-77
2023/12/02 09:00:14;;;;;;;21.37;14.13;;;;;;;6.51;73.80;98120.41;4485421;32;34559;-77
2023/12/02 09:02:44;;;;;;;22.52;13.70;;;;;;;6.64;73.45;98117.59;4484884;32;34726;-77
2023/12/02 09:05:14;;;;;;;19.48;12.93;;;;;;;6.88;72.91;98127.91;4470030;32;34621;-77
2023/12/02 09:07:43;;;;;;;20.70;12.40;;;;;;;6.60;73.45;98117.00;4485045;32;33774;-77
2023/12/02 09:10:12;;;;;;;18.83;12.45;;;;;;;6.47;74.09;98115.50;4484766;32;33190;-77
2023/12/02 09:12:41;;;;;;;20.80;11.73;;;;;;;6.41;74.22;98124.72;4484730;32;34725;-77
2023/12/02 09:15:35;;;;;;;20.10;11.73;;;;;;;6.71;73.57;98123.19;4485059;31;33834;-78
2023/12/02 09:18:10;;;;;;;29.45;13.68;;;;;;;6.91;73.02;98109.22;4485068;32;48858;-77
2023/12/02 09:20:49;;;;;;;20.48;12.90;;;;;;;6.79;73.19;98115.50;4484558;32;33337;-77
2023/12/02 09:23:20;;;;;;;22.60;13.43;;;;;;;6.49;74.27;98116.22;4484569;32;34581;-77
2023/12/02 09:25:51;;;;;;;22.23;14.73;;;;;;;6.58;74.15;98121.56;4484430;31;34042;-77
2023/12/02 09:28:26;;;;;;;25.73;13.50;;;;;;;7.03;72.71;98113.47;4485002;32;33722;-78
2023/12/02 09:31:02;;;;;;;25.30;14.35;;;;;;;7.00;72.70;98111.09;4485120;32;34367;-77
2023/12/02 09:33:38;;;;;;;;;;;;;;;7.19;72.05;98104.31;4485034;32;34074;-77
2023/12/02 09:36:23;;;;;;;24.33;13.35;;;;;;;7.23;71.75;98106.53;4484659;32;34951;-77
2023/12/02 09:38:55;;;;;;;22.73;12.90;;;;;;;7.31;71.17;98112.00;4484135;32;34997;-77
2023/12/02 09:41:35;;;;;;;27.20;14.70;;;;;;;7.14;71.68;98123.12;4484348;32;33264;-77
2023/12/02 09:44:20;;;;;;;19.08;13.43;;;;;;;7.67;70.19;98122.19;4484394;32;33584;-77
2023/12/02 09:47:04;;;;;;;24.45;14.63;;;;;;;7.61;70.40;98111.22;4484421;32;34029;-77
2023/12/02 09:50:07;;;;;;;26.02;14.87;;;;;;;7.49;70.89;98111.44;4469755;32;33589;-77
2023/12/02 09:52:49;;;;;;;22.48;13.27;;;;;;;7.44;70.82;98105.69;4484184;32;34650;-77
2023/12/02 09:55:28;;;;;;;25.80;14.95;;;;;;;7.62;70.15;98107.59;4484097;32;33825;-77
2023/12/02 09:58:22;;;;;;;22.65;14.18;;;;;;;7.73;69.84;98080.31;4484165;32;35351;-77
2023/12/02 10:00:55;;;;;;;20.73;13.20;;;;;;;7.67;70.07;98077.38;4484257;32;33067;-77
2023/12/02 10:03:57;;;;;;;23.65;14.57;;;;;;;7.78;69.79;98072.00;4485068;32;34678;-77
2023/12/02 10:06:37;;;;;;;23.75;15.93;;;;;;;7.88;69.60;98064.97;4462985;32;49104;-77
2023/12/02 10:09:27;;;;;;;20.12;14.48;;;;;;;8.13;68.44;98064.47;4484127;32;48902;-77
2023/12/02 10:12:07;;;;;;;24.65;16.55;;;;;;;8.03;68.70;98070.69;4484059;32;33576;-77
2023/12/02 10:14:42;;;;;;;21.23;15.68;;;;;;;7.96;69.36;98069.56;4484160;31;33762;-77
2023/12/02 10:17:12;;;;;;;23.95;16.17;;;;;;;8.07;68.89;98064.16;4484416;32;34031;-77
2023/12/02 10:19:52;;;;;;;23.52;16.58;;;;;;;8.08;68.81;98053.50;4484655;32;34088;-77
2023/12/02 10:22:24;;;;;;;27.95;18.55;;;;;;;7.99;69.28;98067.47;4484870;32;33081;-77
2023/12/02 10:25:01;;;;;;;28.33;18.23;;;;;;;7.91;69.57;98055.94;4484533;32;34167;-77
2023/12/02 10:27:36;;;;;;;40.08;20.10;;;;;;;7.95;69.64;98065.25;4485195;32;33855;-77
2023/12/02 10:30:10;;;;;;;33.88;19.05;;;;;;;7.81;69.91;98069.12;4484299;32;48914;-78
2023/12/02 10:32:55;;;;;;;53.00;32.70;;;;;;;8.00;69.25;98063.91;4484360;32;33192;-77
2023/12/02 10:35:31;;;;;;;33.50;22.80;;;;;;;7.96;69.18;98030.84;4483799;32;33406;-77
2023/12/02 10:38:13;;;;;;;31.48;16.67;;;;;;;7.83;69.65;98065.34;4484290;32;34159;-77
2023/12/02 10:40:49;;;;;;;25.90;17.17;;;;;;;7.73;69.83;98067.13;4484286;32;33545;-77
2023/12/02 10:43:24;;;;;;;37.13;24.45;;;;;;;7.67;70.18;98036.03;4483816;32;33743;-77
2023/12/02 10:45:59;;;;;;;35.72;22.55;;;;;;;7.25;71.54;98057.22;4484295;32;33354;-77
2023/12/02 10:48:29;;;;;;;30.25;20.00;;;;;;;7.55;70.63;98011.56;4484606;32;34601;-77
2023/12/02 10:51:01;;;;;;;34.95;16.52;;;;;;;7.75;70.29;98027.44;4484249;32;34022;-77
2023/12/02 10:53:34;;;;;;;35.73;19.60;;;;;;;7.15;71.80;98012.37;4484378;32;33615;-77
2023/12/02 10:56:07;;;;;;;50.58;27.02;;;;;;;7.50;71.21;98018.22;4484093;32;33335;-77
2023/12/02 10:58:38;;;;;;;40.67;17.80;;;;;;;7.18;72.29;98024.44;4484137;32;33989;-77
2023/12/02 11:01:10;;;;;;;30.12;18.17;;;;;;;7.45;71.74;98013.34;4484312;32;34166;-77
2023/12/02 11:03:49;;;;;;;32.58;18.98;;;;;;;7.58;71.22;98010.47;4484220;32;33461;-77
2023/12/02 11:06:29;;;;;;;39.67;22.25;;;;;;;7.58;71.30;97992.03;4483537;32;34071;-77
2023/12/02 11:09:05;;;;;;;38.92;19.40;;;;;;;7.61;71.13;97986.50;4484080;32;34171;-77
2023/12/02 11:12:00;;;;;;;41.35;19.37;;;;;;;7.84;70.18;97982.66;4484192;32;35289;-77
2023/12/02 11:14:40;;;;;;;33.00;19.17;;;;;;;7.79;69.90;97970.84;4483794;32;35082;-77
2023/12/02 11:17:17;;;;;;;39.50;20.62;;;;;;;7.75;70.16;97977.34;4469718;32;33103;-77
2023/12/02 11:20:05;;;;;;;28.08;15.75;;;;;;;7.75;70.20;97964.19;4483776;32;34977;-77
2023/12/02 11:22:49;;;;;;;28.02;15.88;;;;;;;7.52;71.00;97984.62;4469551;32;31970;-77
2023/12/02 11:25:27;;;;;;;33.28;22.33;;;;;;;7.50;71.16;97954.97;4483841;32;34068;-77
2023/12/02 11:28:03;;;;;;;42.10;25.50;;;;;;;7.36;71.45;97970.19;4483685;32;33919;-77
2023/12/02 11:30:53;;;;;;;29.02;19.15;;;;;;;7.76;70.65;97963.19;4484249;32;33840;-77
2023/12/02 11:33:35;;;;;;;63.83;40.28;;;;;;;7.81;70.35;97971.56;4483347;32;50107;-77
2023/12/02 11:36:17;;;;;;;29.60;19.08;;;;;;;7.80;70.45;97972.50;4483651;31;48539;-77
2023/12/02 11:39:02;;;;;;;58.03;39.75;;;;;;;7.91;69.89;97961.84;4483750;32;34378;-77
2023/12/02 11:41:46;;;;;;;33.92;22.50;;;;;;;7.81;70.51;97980.28;4483404;32;35049;-77
2023/12/02 11:44:22;;;;;;;36.17;20.70;;;;;;;7.85;70.54;97989.59;4468771;32;32628;-77
2023/12/02 11:47:11;;;;;;;30.15;16.50;;;;;;;7.73;70.84;98003.03;4483631;32;33005;-77